Ashton, Nebraska
Current Conditions -  °F | °C
As of 10:53 AM on Monday 22 Dec 2014 (Local Time) from KGRI Reporting Station
Scattered Clouds Scattered Clouds  
Wind Chill: 34°   Ceiling: Unl
Heat Index: 43°   Visibility: 10mi
Dew Point: 35°   Wind: 20mph
Humidity: 74%   Direction: 320°NW
Pressure: 29.52"   Gusts: NA
Location:  41.25°N, 98.79°W
Report Text: KGRI 221653Z 32017KT 10SM FEW032 SCT060 SCT100 06/02 A2952 RMK AO2 RAE05 SLP009 P0000 T00610017
Loading
Personal Weather Stations






























Interactive Weather Map New forecast layout! Learn more

10-Day Weather Forecast

Advertisements
Track Severe Weather on mobile